sensor_id;sensor_type;location;lat;lon;timestamp;P1;durP1;ratioP1;P2;durP2;ratioP2
25846;SDS011;13676;50.168;8.568;2023-05-14T00:01:36;3.33;;;2.95;;
25846;SDS011;13676;50.168;8.568;2023-05-14T00:04:04;4.22;;;3.03;;
25846;SDS011;13676;50.168;8.568;2023-05-14T00:06:30;4.00;;;3.00;;
25846;SDS011;13676;50.168;8.568;2023-05-14T00:08:57;5.32;;;2.88;;
25846;SDS011;13676;50.168;8.568;2023-05-14T00:11:23;3.95;;;3.55;;
25846;SDS011;13676;50.168;8.568;2023-05-14T00:13:48;7.60;;;3.25;;
25846;SDS011;13676;50.168;8.568;2023-05-14T00:16:15;5.53;;;3.30;;
25846;SDS011;13676;50.168;8.568;2023-05-14T00:18:41;4.28;;;3.17;;
25846;SDS011;13676;50.168;8.568;2023-05-14T00:21:07;3.88;;;3.00;;
25846;SDS011;13676;50.168;8.568;2023-05-14T00:23:33;3.30;;;2.67;;
25846;SDS011;13676;50.168;8.568;2023-05-14T00:25:58;4.45;;;3.00;;
25846;SDS011;13676;50.168;8.568;2023-05-14T00:28:23;3.90;;;2.85;;
25846;SDS011;13676;50.168;8.568;2023-05-14T00:30:53;4.10;;;2.42;;
25846;SDS011;13676;50.168;8.568;2023-05-14T00:33:21;3.00;;;2.70;;
25846;SDS011;13676;50.168;8.568;2023-05-14T00:35:47;5.95;;;3.55;;
25846;SDS011;13676;50.168;8.568;2023-05-14T00:38:15;3.05;;;2.63;;
25846;SDS011;13676;50.168;8.568;2023-05-14T00:43:10;2.63;;;2.33;;
25846;SDS011;13676;50.168;8.568;2023-05-14T00:45:36;5.10;;;2.90;;
25846;SDS011;13676;50.168;8.568;2023-05-14T00:48:03;3.53;;;2.47;;
25846;SDS011;13676;50.168;8.568;2023-05-14T00:50:29;3.30;;;2.63;;
25846;SDS011;13676;50.168;8.568;2023-05-14T00:52:55;3.35;;;2.60;;
25846;SDS011;13676;50.168;8.568;2023-05-14T00:55:20;2.70;;;2.35;;
25846;SDS011;13676;50.168;8.568;2023-05-14T00:57:48;3.03;;;2.50;;
25846;SDS011;13676;50.168;8.568;2023-05-14T01:00:14;2.83;;;2.13;;
25846;SDS011;13676;50.168;8.568;2023-05-14T01:02:40;4.70;;;2.17;;
25846;SDS011;13676;50.168;8.568;2023-05-14T01:05:06;3.80;;;2.50;;
25846;SDS011;13676;50.168;8.568;2023-05-14T01:10:08;3.70;;;2.45;;
25846;SDS011;13676;50.168;8.568;2023-05-14T01:12:45;7.43;;;2.83;;
25846;SDS011;13676;50.168;8.568;2023-05-14T01:15:16;2.83;;;2.38;;
25846;SDS011;13676;50.168;8.568;2023-05-14T01:17:53;4.35;;;2.75;;
25846;SDS011;13676;50.168;8.568;2023-05-14T01:20:25;3.22;;;2.53;;
25846;SDS011;13676;50.168;8.568;2023-05-14T01:22:51;3.58;;;2.40;;
25846;SDS011;13676;50.168;8.568;2023-05-14T01:25:16;5.00;;;2.60;;
25846;SDS011;13676;50.168;8.568;2023-05-14T01:33:15;6.18;;;2.33;;
25846;SDS011;13676;50.168;8.568;2023-05-14T01:35:43;2.15;;;1.90;;
25846;SDS011;13676;50.168;8.568;2023-05-14T01:38:10;4.10;;;2.60;;
25846;SDS011;13676;50.168;8.568;2023-05-14T01:40:37;3.28;;;2.33;;
25846;SDS011;13676;50.168;8.568;2023-05-14T01:43:03;3.05;;;2.17;;
25846;SDS011;13676;50.168;8.568;2023-05-14T01:45:29;3.17;;;2.40;;
25846;SDS011;13676;50.168;8.568;2023-05-14T01:47:56;3.85;;;2.35;;
25846;SDS011;13676;50.168;8.568;2023-05-14T01:50:23;2.80;;;2.40;;
25846;SDS011;13676;50.168;8.568;2023-05-14T01:52:48;4.82;;;2.83;;
25846;SDS011;13676;50.168;8.568;2023-05-14T01:55:17;5.10;;;2.70;;
25846;SDS011;13676;50.168;8.568;2023-05-14T01:57:43;3.13;;;2.83;;
25846;SDS011;13676;50.168;8.568;2023-05-14T02:00:08;3.75;;;2.70;;
25846;SDS011;13676;50.168;8.568;2023-05-14T02:02:35;3.15;;;2.63;;
25846;SDS011;13676;50.168;8.568;2023-05-14T02:05:00;2.97;;;2.60;;
25846;SDS011;13676;50.168;8.568;2023-05-14T02:07:28;4.57;;;2.80;;
25846;SDS011;13676;50.168;8.568;2023-05-14T02:09:53;4.95;;;2.88;;
25846;SDS011;13676;50.168;8.568;2023-05-14T02:12:19;5.88;;;2.92;;
25846;SDS011;13676;50.168;8.568;2023-05-14T02:14:45;3.15;;;2.63;;
25846;SDS011;13676;50.168;8.568;2023-05-14T02:17:10;5.53;;;3.08;;
25846;SDS011;13676;50.168;8.568;2023-05-14T02:19:39;4.28;;;2.78;;
25846;SDS011;13676;50.168;8.568;2023-05-14T02:22:05;3.47;;;2.72;;
25846;SDS011;13676;50.168;8.568;2023-05-14T02:24:30;4.95;;;2.53;;
25846;SDS011;13676;50.168;8.568;2023-05-14T02:26:56;3.00;;;2.38;;
25846;SDS011;13676;50.168;8.568;2023-05-14T02:29:24;2.83;;;2.55;;
25846;SDS011;13676;50.168;8.568;2023-05-14T02:31:50;3.50;;;2.40;;
25846;SDS011;13676;50.168;8.568;2023-05-14T02:34:15;3.03;;;2.63;;
25846;SDS011;13676;50.168;8.568;2023-05-14T02:36:41;2.53;;;2.20;;
25846;SDS011;13676;50.168;8.568;2023-05-14T02:39:06;2.78;;;2.55;;
25846;SDS011;13676;50.168;8.568;2023-05-14T02:41:32;4.00;;;2.67;;
25846;SDS011;13676;50.168;8.568;2023-05-14T02:43:57;2.97;;;2.58;;
25846;SDS011;13676;50.168;8.568;2023-05-14T02:46:23;4.05;;;2.60;;
25846;SDS011;13676;50.168;8.568;2023-05-14T02:48:49;6.07;;;3.35;;
25846;SDS011;13676;50.168;8.568;2023-05-14T02:51:15;3.72;;;2.60;;
25846;SDS011;13676;50.168;8.568;2023-05-14T02:53:40;3.00;;;2.60;;
25846;SDS011;13676;50.168;8.568;2023-05-14T02:56:06;3.85;;;2.70;;
25846;SDS011;13676;50.168;8.568;2023-05-14T02:58:32;3.10;;;2.70;;
25846;SDS011;13676;50.168;8.568;2023-05-14T03:00:58;2.33;;;1.92;;
25846;SDS011;13676;50.168;8.568;2023-05-14T03:03:24;2.88;;;2.42;;
25846;SDS011;13676;50.168;8.568;2023-05-14T03:05:50;2.10;;;1.90;;
25846;SDS011;13676;50.168;8.568;2023-05-14T03:08:16;2.50;;;2.08;;
25846;SDS011;13676;50.168;8.568;2023-05-14T03:10:41;4.63;;;2.22;;
25846;SDS011;13676;50.168;8.568;2023-05-14T03:13:06;2.42;;;2.00;;
25846;SDS011;13676;50.168;8.568;2023-05-14T03:15:32;3.72;;;2.40;;
25846;SDS011;13676;50.168;8.568;2023-05-14T03:17:59;2.30;;;2.00;;
25846;SDS011;13676;50.168;8.568;2023-05-14T03:20:25;2.50;;;2.23;;
25846;SDS011;13676;50.168;8.568;2023-05-14T03:22:51;3.15;;;2.20;;
25846;SDS011;13676;50.168;8.568;2023-05-14T03:25:18;3.95;;;2.20;;
25846;SDS011;13676;50.168;8.568;2023-05-14T03:27:44;2.10;;;1.90;;
25846;SDS011;13676;50.168;8.568;2023-05-14T03:30:10;5.25;;;2.28;;
25846;SDS011;13676;50.168;8.568;2023-05-14T03:32:36;2.40;;;2.20;;
25846;SDS011;13676;50.168;8.568;2023-05-14T03:35:01;2.13;;;1.90;;
25846;SDS011;13676;50.168;8.568;2023-05-14T03:37:27;2.97;;;1.70;;
25846;SDS011;13676;50.168;8.568;2023-05-14T03:39:54;2.17;;;1.98;;
25846;SDS011;13676;50.168;8.568;2023-05-14T03:42:20;2.75;;;2.13;;
25846;SDS011;13676;50.168;8.568;2023-05-14T03:44:46;2.08;;;1.88;;
25846;SDS011;13676;50.168;8.568;2023-05-14T03:47:11;3.97;;;2.45;;
25846;SDS011;13676;50.168;8.568;2023-05-14T03:49:37;2.53;;;2.05;;
25846;SDS011;13676;50.168;8.568;2023-05-14T03:52:02;2.38;;;2.17;;
25846;SDS011;13676;50.168;8.568;2023-05-14T03:54:29;2.20;;;2.00;;
25846;SDS011;13676;50.168;8.568;2023-05-14T03:56:55;3.40;;;2.20;;
25846;SDS011;13676;50.168;8.568;2023-05-14T03:59:20;4.03;;;2.60;;
25846;SDS011;13676;50.168;8.568;2023-05-14T04:01:46;2.88;;;2.47;;
25846;SDS011;13676;50.168;8.568;2023-05-14T04:04:13;4.45;;;2.60;;
25846;SDS011;13676;50.168;8.568;2023-05-14T04:06:38;4.57;;;2.80;;
25846;SDS011;13676;50.168;8.568;2023-05-14T04:09:03;4.40;;;2.80;;
25846;SDS011;13676;50.168;8.568;2023-05-14T04:11:29;2.80;;;2.60;;
25846;SDS011;13676;50.168;8.568;2023-05-14T04:13:54;3.20;;;2.50;;
25846;SDS011;13676;50.168;8.568;2023-05-14T04:16:23;3.28;;;2.67;;
25846;SDS011;13676;50.168;8.568;2023-05-14T04:18:49;4.68;;;2.78;;
25846;SDS011;13676;50.168;8.568;2023-05-14T04:21:14;3.72;;;2.75;;
25846;SDS011;13676;50.168;8.568;2023-05-14T04:23:41;3.28;;;2.80;;
25846;SDS011;13676;50.168;8.568;2023-05-14T04:26:06;3.08;;;2.67;;
25846;SDS011;13676;50.168;8.568;2023-05-14T04:28:32;4.07;;;3.40;;
25846;SDS011;13676;50.168;8.568;2023-05-14T04:30:57;3.65;;;3.35;;
25846;SDS011;13676;50.168;8.568;2023-05-14T04:33:23;11.55;;;9.07;;
25846;SDS011;13676;50.168;8.568;2023-05-14T04:35:49;11.05;;;8.52;;
25846;SDS011;13676;50.168;8.568;2023-05-14T04:38:17;7.57;;;5.17;;
25846;SDS011;13676;50.168;8.568;2023-05-14T04:40:42;4.28;;;3.88;;
25846;SDS011;13676;50.168;8.568;2023-05-14T04:43:08;4.10;;;3.10;;
25846;SDS011;13676;50.168;8.568;2023-05-14T04:45:34;4.40;;;2.88;;
25846;SDS011;13676;50.168;8.568;2023-05-14T04:48:00;3.97;;;3.10;;
25846;SDS011;13676;50.168;8.568;2023-05-14T04:50:25;3.38;;;3.08;;
25846;SDS011;13676;50.168;8.568;2023-05-14T04:52:51;3.42;;;2.95;;
25846;SDS011;13676;50.168;8.568;2023-05-14T04:55:39;3.90;;;3.10;;
25846;SDS011;13676;50.168;8.568;2023-05-14T04:58:05;5.00;;;2.80;;
25846;SDS011;13676;50.168;8.568;2023-05-14T05:00:30;3.75;;;2.80;;
25846;SDS011;13676;50.168;8.568;2023-05-14T05:02:57;3.63;;;2.63;;
25846;SDS011;13676;50.168;8.568;2023-05-14T05:05:22;4.18;;;2.92;;
25846;SDS011;13676;50.168;8.568;2023-05-14T05:07:48;3.97;;;2.60;;
25846;SDS011;13676;50.168;8.568;2023-05-14T05:10:15;4.57;;;2.92;;
25846;SDS011;13676;50.168;8.568;2023-05-14T05:12:41;4.22;;;3.33;;
25846;SDS011;13676;50.168;8.568;2023-05-14T05:15:07;6.85;;;3.38;;
25846;SDS011;13676;50.168;8.568;2023-05-14T05:17:33;4.13;;;2.95;;
25846;SDS011;13676;50.168;8.568;2023-05-14T05:19:59;7.53;;;3.03;;
25846;SDS011;13676;50.168;8.568;2023-05-14T05:22:24;5.32;;;3.45;;
25846;SDS011;13676;50.168;8.568;2023-05-14T05:24:50;4.45;;;3.55;;
25846;SDS011;13676;50.168;8.568;2023-05-14T05:27:16;3.30;;;3.00;;
25846;SDS011;13676;50.168;8.568;2023-05-14T05:29:42;3.90;;;3.40;;
25846;SDS011;13676;50.168;8.568;2023-05-14T05:32:08;4.97;;;3.20;;
25846;SDS011;13676;50.168;8.568;2023-05-14T05:34:33;8.32;;;3.08;;
25846;SDS011;13676;50.168;8.568;2023-05-14T05:37:00;5.85;;;3.75;;
25846;SDS011;13676;50.168;8.568;2023-05-14T05:39:27;4.15;;;2.80;;
25846;SDS011;13676;50.168;8.568;2023-05-14T05:41:59;4.97;;;3.40;;
25846;SDS011;13676;50.168;8.568;2023-05-14T05:44:26;3.63;;;2.97;;
25846;SDS011;13676;50.168;8.568;2023-05-14T05:46:51;5.43;;;2.83;;
25846;SDS011;13676;50.168;8.568;2023-05-14T05:49:17;4.03;;;3.63;;
25846;SDS011;13676;50.168;8.568;2023-05-14T05:51:42;5.45;;;3.10;;
25846;SDS011;13676;50.168;8.568;2023-05-14T05:54:08;4.13;;;3.33;;
25846;SDS011;13676;50.168;8.568;2023-05-14T05:56:33;7.88;;;3.60;;
25846;SDS011;13676;50.168;8.568;2023-05-14T05:58:59;4.40;;;3.15;;
25846;SDS011;13676;50.168;8.568;2023-05-14T06:01:24;4.47;;;3.28;;
25846;SDS011;13676;50.168;8.568;2023-05-14T06:03:50;3.58;;;3.25;;
25846;SDS011;13676;50.168;8.568;2023-05-14T06:06:16;3.80;;;3.40;;
25846;SDS011;13676;50.168;8.568;2023-05-14T06:08:42;3.40;;;2.67;;
25846;SDS011;13676;50.168;8.568;2023-05-14T06:11:08;4.53;;;3.17;;
25846;SDS011;13676;50.168;8.568;2023-05-14T06:13:33;5.72;;;2.88;;
25846;SDS011;13676;50.168;8.568;2023-05-14T06:15:59;4.15;;;3.10;;
25846;SDS011;13676;50.168;8.568;2023-05-14T06:18:24;3.33;;;3.03;;
25846;SDS011;13676;50.168;8.568;2023-05-14T06:20:49;6.38;;;3.35;;
25846;SDS011;13676;50.168;8.568;2023-05-14T06:23:16;5.18;;;2.70;;
25846;SDS011;13676;50.168;8.568;2023-05-14T06:25:41;5.57;;;3.60;;
25846;SDS011;13676;50.168;8.568;2023-05-14T06:28:07;3.67;;;2.88;;
25846;SDS011;13676;50.168;8.568;2023-05-14T06:30:32;5.20;;;2.95;;
25846;SDS011;13676;50.168;8.568;2023-05-14T06:32:57;3.58;;;2.80;;
25846;SDS011;13676;50.168;8.568;2023-05-14T06:35:23;3.38;;;2.92;;
25846;SDS011;13676;50.168;8.568;2023-05-14T06:37:49;3.88;;;2.80;;
25846;SDS011;13676;50.168;8.568;2023-05-14T06:40:15;4.68;;;2.90;;
25846;SDS011;13676;50.168;8.568;2023-05-14T06:42:40;3.10;;;2.80;;
25846;SDS011;13676;50.168;8.568;2023-05-14T06:45:06;4.07;;;3.15;;
25846;SDS011;13676;50.168;8.568;2023-05-14T06:47:32;4.32;;;3.00;;
25846;SDS011;13676;50.168;8.568;2023-05-14T06:49:57;4.47;;;3.38;;
25846;SDS011;13676;50.168;8.568;2023-05-14T06:52:23;3.13;;;2.83;;
25846;SDS011;13676;50.168;8.568;2023-05-14T06:54:49;3.40;;;2.80;;
25846;SDS011;13676;50.168;8.568;2023-05-14T06:57:15;5.75;;;3.00;;
25846;SDS011;13676;50.168;8.568;2023-05-14T06:59:41;5.57;;;2.80;;
25846;SDS011;13676;50.168;8.568;2023-05-14T07:02:06;3.00;;;2.63;;
25846;SDS011;13676;50.168;8.568;2023-05-14T07:04:31;6.00;;;2.58;;
25846;SDS011;13676;50.168;8.568;2023-05-14T07:06:57;2.35;;;2.10;;
25846;SDS011;13676;50.168;8.568;2023-05-14T07:09:22;3.17;;;2.88;;
25846;SDS011;13676;50.168;8.568;2023-05-14T07:11:49;4.40;;;3.05;;
25846;SDS011;13676;50.168;8.568;2023-05-14T07:14:14;3.28;;;2.92;;
25846;SDS011;13676;50.168;8.568;2023-05-14T07:16:41;2.92;;;2.47;;
25846;SDS011;13676;50.168;8.568;2023-05-14T07:19:06;5.70;;;3.10;;
25846;SDS011;13676;50.168;8.568;2023-05-14T07:21:32;3.78;;;2.90;;
25846;SDS011;13676;50.168;8.568;2023-05-14T07:24:00;4.32;;;2.95;;
25846;SDS011;13676;50.168;8.568;2023-05-14T07:26:26;4.10;;;2.90;;
25846;SDS011;13676;50.168;8.568;2023-05-14T07:28:51;4.30;;;3.00;;
25846;SDS011;13676;50.168;8.568;2023-05-14T07:31:16;3.85;;;3.00;;
25846;SDS011;13676;50.168;8.568;2023-05-14T07:33:42;3.90;;;3.03;;
25846;SDS011;13676;50.168;8.568;2023-05-14T07:36:08;3.45;;;2.15;;
25846;SDS011;13676;50.168;8.568;2023-05-14T07:38:34;2.83;;;2.60;;
25846;SDS011;13676;50.168;8.568;2023-05-14T07:41:00;3.78;;;3.10;;
25846;SDS011;13676;50.168;8.568;2023-05-14T07:43:25;3.90;;;2.75;;
25846;SDS011;13676;50.168;8.568;2023-05-14T07:45:51;3.72;;;2.97;;
25846;SDS011;13676;50.168;8.568;2023-05-14T07:48:16;6.20;;;2.85;;
25846;SDS011;13676;50.168;8.568;2023-05-14T07:50:43;4.78;;;3.25;;
25846;SDS011;13676;50.168;8.568;2023-05-14T07:53:09;5.45;;;3.70;;
25846;SDS011;13676;50.168;8.568;2023-05-14T07:55:35;6.43;;;3.10;;
25846;SDS011;13676;50.168;8.568;2023-05-14T07:58:02;10.85;;;3.70;;
25846;SDS011;13676;50.168;8.568;2023-05-14T08:00:27;4.03;;;2.67;;
25846;SDS011;13676;50.168;8.568;2023-05-14T08:02:53;5.13;;;2.80;;
25846;SDS011;13676;50.168;8.568;2023-05-14T08:05:20;3.25;;;2.95;;
25846;SDS011;13676;50.168;8.568;2023-05-14T08:07:46;6.45;;;2.70;;
25846;SDS011;13676;50.168;8.568;2023-05-14T08:10:13;4.30;;;3.17;;
25846;SDS011;13676;50.168;8.568;2023-05-14T08:12:38;4.65;;;2.55;;
25846;SDS011;13676;50.168;8.568;2023-05-14T08:15:05;2.75;;;2.50;;
25846;SDS011;13676;50.168;8.568;2023-05-14T08:17:31;5.60;;;2.80;;
25846;SDS011;13676;50.168;8.568;2023-05-14T08:19:57;3.00;;;2.65;;
25846;SDS011;13676;50.168;8.568;2023-05-14T08:22:22;4.95;;;2.97;;
25846;SDS011;13676;50.168;8.568;2023-05-14T08:24:48;3.28;;;2.97;;
25846;SDS011;13676;50.168;8.568;2023-05-14T08:27:14;4.10;;;3.00;;
25846;SDS011;13676;50.168;8.568;2023-05-14T08:29:42;3.28;;;2.58;;
25846;SDS011;13676;50.168;8.568;2023-05-14T08:32:07;3.28;;;2.42;;
25846;SDS011;13676;50.168;8.568;2023-05-14T08:34:33;2.90;;;2.60;;
25846;SDS011;13676;50.168;8.568;2023-05-14T08:36:59;4.35;;;2.83;;
25846;SDS011;13676;50.168;8.568;2023-05-14T08:39:25;6.43;;;2.40;;
25846;SDS011;13676;50.168;8.568;2023-05-14T08:41:51;3.33;;;2.40;;
25846;SDS011;13676;50.168;8.568;2023-05-14T08:44:18;3.00;;;2.63;;
25846;SDS011;13676;50.168;8.568;2023-05-14T08:46:44;2.70;;;2.42;;
25846;SDS011;13676;50.168;8.568;2023-05-14T08:51:53;3.42;;;2.65;;
25846;SDS011;13676;50.168;8.568;2023-05-14T08:54:19;3.80;;;2.30;;
25846;SDS011;13676;50.168;8.568;2023-05-14T08:56:47;2.45;;;2.00;;
25846;SDS011;13676;50.168;8.568;2023-05-14T08:59:15;4.13;;;2.60;;
25846;SDS011;13676;50.168;8.568;2023-05-14T09:01:45;2.90;;;2.25;;
25846;SDS011;13676;50.168;8.568;2023-05-14T09:04:12;3.75;;;2.67;;
25846;SDS011;13676;50.168;8.568;2023-05-14T09:06:40;2.80;;;2.10;;
25846;SDS011;13676;50.168;8.568;2023-05-14T09:09:06;4.43;;;2.77;;
25846;SDS011;13676;50.168;8.568;2023-05-14T09:11:32;3.20;;;2.20;;
25846;SDS011;13676;50.168;8.568;2023-05-14T09:13:57;2.78;;;2.28;;
25846;SDS011;13676;50.168;8.568;2023-05-14T09:16:22;3.33;;;2.30;;
25846;SDS011;13676;50.168;8.568;2023-05-14T09:18:49;4.63;;;2.00;;
25846;SDS011;13676;50.168;8.568;2023-05-14T09:21:16;3.35;;;2.13;;
25846;SDS011;13676;50.168;8.568;2023-05-14T09:23:43;2.85;;;2.35;;
25846;SDS011;13676;50.168;8.568;2023-05-14T09:26:09;2.95;;;2.15;;
25846;SDS011;13676;50.168;8.568;2023-05-14T09:28:39;2.95;;;2.20;;
25846;SDS011;13676;50.168;8.568;2023-05-14T09:31:05;2.53;;;2.17;;
25846;SDS011;13676;50.168;8.568;2023-05-14T09:33:31;2.78;;;1.80;;
25846;SDS011;13676;50.168;8.568;2023-05-14T09:35:57;4.55;;;2.30;;
25846;SDS011;13676;50.168;8.568;2023-05-14T09:40:57;2.83;;;2.30;;
25846;SDS011;13676;50.168;8.568;2023-05-14T09:43:22;3.35;;;2.20;;
25846;SDS011;13676;50.168;8.568;2023-05-14T09:45:48;1.95;;;1.75;;
25846;SDS011;13676;50.168;8.568;2023-05-14T09:48:14;2.20;;;2.00;;
25846;SDS011;13676;50.168;8.568;2023-05-14T09:50:43;2.88;;;2.10;;
25846;SDS011;13676;50.168;8.568;2023-05-14T09:53:09;4.40;;;2.10;;
25846;SDS011;13676;50.168;8.568;2023-05-14T09:55:35;2.38;;;1.98;;
25846;SDS011;13676;50.168;8.568;2023-05-14T09:58:01;2.30;;;1.75;;
25846;SDS011;13676;50.168;8.568;2023-05-14T10:00:28;2.90;;;1.80;;
25846;SDS011;13676;50.168;8.568;2023-05-14T10:02:57;2.28;;;1.80;;
25846;SDS011;13676;50.168;8.568;2023-05-14T10:05:23;2.75;;;1.90;;
25846;SDS011;13676;50.168;8.568;2023-05-14T10:07:48;1.90;;;1.70;;
25846;SDS011;13676;50.168;8.568;2023-05-14T10:10:19;2.97;;;2.05;;
25846;SDS011;13676;50.168;8.568;2023-05-14T10:12:52;6.28;;;1.90;;
25846;SDS011;13676;50.168;8.568;2023-05-14T10:15:32;2.47;;;2.10;;
25846;SDS011;13676;50.168;8.568;2023-05-14T10:18:03;3.20;;;1.88;;
25846;SDS011;13676;50.168;8.568;2023-05-14T10:20:33;1.77;;;1.55;;
25846;SDS011;13676;50.168;8.568;2023-05-14T10:23:00;3.78;;;1.83;;
25846;SDS011;13676;50.168;8.568;2023-05-14T10:25:25;2.95;;;2.20;;
25846;SDS011;13676;50.168;8.568;2023-05-14T10:27:51;5.32;;;1.80;;
25846;SDS011;13676;50.168;8.568;2023-05-14T10:30:16;1.65;;;1.50;;
25846;SDS011;13676;50.168;8.568;2023-05-14T10:32:46;2.55;;;1.73;;
25846;SDS011;13676;50.168;8.568;2023-05-14T10:35:16;4.43;;;1.58;;
25846;SDS011;13676;50.168;8.568;2023-05-14T10:37:44;1.70;;;1.60;;
25846;SDS011;13676;50.168;8.568;2023-05-14T10:40:10;1.85;;;1.63;;
25846;SDS011;13676;50.168;8.568;2023-05-14T10:42:37;4.72;;;1.83;;
25846;SDS011;13676;50.168;8.568;2023-05-14T10:45:11;5.22;;;1.67;;
25846;SDS011;13676;50.168;8.568;2023-05-14T10:47:38;3.80;;;1.90;;
25846;SDS011;13676;50.168;8.568;2023-05-14T10:50:10;5.22;;;1.70;;
25846;SDS011;13676;50.168;8.568;2023-05-14T10:52:37;2.22;;;1.80;;
25846;SDS011;13676;50.168;8.568;2023-05-14T10:55:05;1.40;;;1.30;;
25846;SDS011;13676;50.168;8.568;2023-05-14T10:57:37;2.90;;;1.60;;
25846;SDS011;13676;50.168;8.568;2023-05-14T11:00:04;2.40;;;1.88;;
25846;SDS011;13676;50.168;8.568;2023-05-14T11:02:39;1.40;;;1.30;;
25846;SDS011;13676;50.168;8.568;2023-05-14T11:05:07;2.75;;;1.73;;
25846;SDS011;13676;50.168;8.568;2023-05-14T11:07:42;1.77;;;1.60;;
25846;SDS011;13676;50.168;8.568;2023-05-14T11:10:16;3.13;;;1.90;;
25846;SDS011;13676;50.168;8.568;2023-05-14T11:12:46;2.38;;;1.48;;
25846;SDS011;13676;50.168;8.568;2023-05-14T11:15:16;1.65;;;1.30;;
25846;SDS011;13676;50.168;8.568;2023-05-14T11:17:43;2.10;;;1.90;;
25846;SDS011;13676;50.168;8.568;2023-05-14T11:20:09;3.87;;;1.77;;
25846;SDS011;13676;50.168;8.568;2023-05-14T11:22:37;2.65;;;1.55;;
25846;SDS011;13676;50.168;8.568;2023-05-14T11:25:03;2.03;;;1.67;;
25846;SDS011;13676;50.168;8.568;2023-05-14T11:27:32;2.72;;;1.75;;
25846;SDS011;13676;50.168;8.568;2023-05-14T11:29:58;3.17;;;1.80;;
25846;SDS011;13676;50.168;8.568;2023-05-14T11:32:25;2.28;;;1.50;;
25846;SDS011;13676;50.168;8.568;2023-05-14T11:34:51;2.63;;;1.70;;
25846;SDS011;13676;50.168;8.568;2023-05-14T11:37:21;3.15;;;1.80;;
25846;SDS011;13676;50.168;8.568;2023-05-14T11:39:47;3.42;;;1.90;;
25846;SDS011;13676;50.168;8.568;2023-05-14T11:42:14;1.73;;;1.50;;
25846;SDS011;13676;50.168;8.568;2023-05-14T11:44:41;2.55;;;1.70;;
25846;SDS011;13676;50.168;8.568;2023-05-14T11:47:08;1.70;;;1.48;;
25846;SDS011;13676;50.168;8.568;2023-05-14T11:49:34;2.15;;;1.50;;
25846;SDS011;13676;50.168;8.568;2023-05-14T11:52:02;6.47;;;1.88;;
25846;SDS011;13676;50.168;8.568;2023-05-14T11:54:32;2.00;;;1.58;;
25846;SDS011;13676;50.168;8.568;2023-05-14T11:56:59;1.90;;;1.60;;
25846;SDS011;13676;50.168;8.568;2023-05-14T11:59:34;1.77;;;1.50;;
25846;SDS011;13676;50.168;8.568;2023-05-14T12:02:01;2.83;;;1.50;;
25846;SDS011;13676;50.168;8.568;2023-05-14T12:04:28;2.40;;;2.00;;
25846;SDS011;13676;50.168;8.568;2023-05-14T12:06:53;2.55;;;2.00;;
25846;SDS011;13676;50.168;8.568;2023-05-14T12:09:19;1.88;;;1.67;;
25846;SDS011;13676;50.168;8.568;2023-05-14T12:11:45;3.58;;;1.88;;
25846;SDS011;13676;50.168;8.568;2023-05-14T12:14:15;2.15;;;1.65;;
25846;SDS011;13676;50.168;8.568;2023-05-14T12:16:42;4.15;;;2.35;;
25846;SDS011;13676;50.168;8.568;2023-05-14T12:19:08;3.65;;;1.55;;
25846;SDS011;13676;50.168;8.568;2023-05-14T12:21:35;3.17;;;2.50;;
25846;SDS011;13676;50.168;8.568;2023-05-14T12:24:01;1.35;;;1.10;;
25846;SDS011;13676;50.168;8.568;2023-05-14T12:26:27;3.25;;;1.38;;
25846;SDS011;13676;50.168;8.568;2023-05-14T12:28:59;3.22;;;1.75;;
25846;SDS011;13676;50.168;8.568;2023-05-14T12:31:29;1.58;;;1.42;;
25846;SDS011;13676;50.168;8.568;2023-05-14T12:33:54;1.67;;;1.20;;
25846;SDS011;13676;50.168;8.568;2023-05-14T12:36:20;1.42;;;1.33;;
25846;SDS011;13676;50.168;8.568;2023-05-14T12:38:47;1.77;;;1.38;;
25846;SDS011;13676;50.168;8.568;2023-05-14T12:41:12;1.48;;;1.20;;
25846;SDS011;13676;50.168;8.568;2023-05-14T12:43:39;4.35;;;1.50;;
25846;SDS011;13676;50.168;8.568;2023-05-14T12:46:06;1.45;;;1.35;;
25846;SDS011;13676;50.168;8.568;2023-05-14T12:48:32;1.67;;;1.30;;
25846;SDS011;13676;50.168;8.568;2023-05-14T12:50:59;4.10;;;1.33;;
25846;SDS011;13676;50.168;8.568;2023-05-14T12:53:25;1.33;;;1.13;;
25846;SDS011;13676;50.168;8.568;2023-05-14T12:55:50;2.03;;;1.67;;
25846;SDS011;13676;50.168;8.568;2023-05-14T12:58:16;3.10;;;1.50;;
25846;SDS011;13676;50.168;8.568;2023-05-14T13:00:41;1.58;;;1.20;;
25846;SDS011;13676;50.168;8.568;2023-05-14T13:03:06;1.20;;;1.10;;
25846;SDS011;13676;50.168;8.568;2023-05-14T13:05:32;1.58;;;1.20;;
25846;SDS011;13676;50.168;8.568;2023-05-14T13:07:59;1.27;;;1.17;;
25846;SDS011;13676;50.168;8.568;2023-05-14T13:10:27;4.78;;;1.60;;
25846;SDS011;13676;50.168;8.568;2023-05-14T13:12:52;2.88;;;1.55;;
25846;SDS011;13676;50.168;8.568;2023-05-14T13:15:18;2.22;;;1.20;;
25846;SDS011;13676;50.168;8.568;2023-05-14T13:17:44;2.38;;;1.73;;
25846;SDS011;13676;50.168;8.568;2023-05-14T13:20:10;1.30;;;1.20;;
25846;SDS011;13676;50.168;8.568;2023-05-14T13:22:35;1.30;;;1.20;;
25846;SDS011;13676;50.168;8.568;2023-05-14T13:25:01;1.45;;;0.90;;
25846;SDS011;13676;50.168;8.568;2023-05-14T13:27:27;1.50;;;1.23;;
25846;SDS011;13676;50.168;8.568;2023-05-14T13:29:54;1.10;;;1.00;;
25846;SDS011;13676;50.168;8.568;2023-05-14T13:32:19;1.27;;;1.15;;
25846;SDS011;13676;50.168;8.568;2023-05-14T13:34:45;1.52;;;1.17;;
25846;SDS011;13676;50.168;8.568;2023-05-14T13:37:10;2.35;;;1.10;;
25846;SDS011;13676;50.168;8.568;2023-05-14T13:39:36;0.95;;;0.82;;
25846;SDS011;13676;50.168;8.568;2023-05-14T13:42:01;2.65;;;1.40;;
25846;SDS011;13676;50.168;8.568;2023-05-14T13:44:26;2.05;;;0.95;;
25846;SDS011;13676;50.168;8.568;2023-05-14T13:46:52;1.60;;;1.20;;
25846;SDS011;13676;50.168;8.568;2023-05-14T13:49:18;1.55;;;1.30;;
25846;SDS011;13676;50.168;8.568;2023-05-14T13:51:43;1.33;;;1.10;;
25846;SDS011;13676;50.168;8.568;2023-05-14T13:54:09;1.73;;;1.55;;
25846;SDS011;13676;50.168;8.568;2023-05-14T13:56:34;2.78;;;1.50;;
25846;SDS011;13676;50.168;8.568;2023-05-14T13:59:00;0.77;;;0.77;;
25846;SDS011;13676;50.168;8.568;2023-05-14T14:01:25;1.50;;;1.25;;
25846;SDS011;13676;50.168;8.568;2023-05-14T14:03:51;2.47;;;1.52;;
25846;SDS011;13676;50.168;8.568;2023-05-14T14:06:16;1.58;;;1.42;;
25846;SDS011;13676;50.168;8.568;2023-05-14T14:08:43;2.38;;;1.90;;
25846;SDS011;13676;50.168;8.568;2023-05-14T14:11:08;7.00;;;4.43;;
25846;SDS011;13676;50.168;8.568;2023-05-14T14:13:34;2.40;;;1.65;;
25846;SDS011;13676;50.168;8.568;2023-05-14T14:16:00;1.20;;;1.10;;
25846;SDS011;13676;50.168;8.568;2023-05-14T14:18:27;1.20;;;1.10;;
25846;SDS011;13676;50.168;8.568;2023-05-14T14:20:52;1.98;;;1.27;;
25846;SDS011;13676;50.168;8.568;2023-05-14T14:23:18;3.15;;;1.98;;
25846;SDS011;13676;50.168;8.568;2023-05-14T14:25:43;1.95;;;1.40;;
25846;SDS011;13676;50.168;8.568;2023-05-14T14:28:09;1.48;;;1.20;;
25846;SDS011;13676;50.168;8.568;2023-05-14T14:30:34;1.52;;;1.20;;
25846;SDS011;13676;50.168;8.568;2023-05-14T14:32:59;1.15;;;1.05;;
25846;SDS011;13676;50.168;8.568;2023-05-14T14:35:25;1.30;;;1.00;;
25846;SDS011;13676;50.168;8.568;2023-05-14T14:37:50;1.20;;;1.00;;
25846;SDS011;13676;50.168;8.568;2023-05-14T14:40:17;1.17;;;1.08;;
25846;SDS011;13676;50.168;8.568;2023-05-14T14:42:43;1.58;;;1.20;;
25846;SDS011;13676;50.168;8.568;2023-05-14T14:45:09;1.20;;;1.10;;
25846;SDS011;13676;50.168;8.568;2023-05-14T14:47:35;1.40;;;1.10;;
25846;SDS011;13676;50.168;8.568;2023-05-14T14:50:00;1.30;;;1.13;;
25846;SDS011;13676;50.168;8.568;2023-05-14T14:52:26;1.23;;;0.82;;
25846;SDS011;13676;50.168;8.568;2023-05-14T14:54:52;1.27;;;1.17;;
25846;SDS011;13676;50.168;8.568;2023-05-14T14:57:19;1.98;;;1.45;;
25846;SDS011;13676;50.168;8.568;2023-05-14T14:59:47;1.83;;;1.13;;